Mentone, AL

2:50 AM CDT on March 25, 2017 (GMT -0500)
Vulcraft | | Change Station
Active Advisory: Winter Weather Statement

Elev 965 ft 34.52 °N, 85.65 °W | Updated 32 seconds ago

Partly Cloudy
Partly Cloudy
62.4 °F
Feels Like 62.4 °F
N
6.0
Wind Variable Wind from SE

Today
High -- | Low -- °F
--% Chance of Precip.
Yesterday
High -- | Low -- °F
Precip. -- in
Pressure 30.19 in
Visibility 10.0 miles
Clouds Clear
Dew Point 50 °F
Humidity 63%
Rainfall 0.00 in
Snow Depth Not available.
6:38 AM 6:58 PM
Waning Crescent, 10% visible
METAR K4A9 250735Z AUTO 13004KT 10SM CLR 17/07 A3019 RMK AO2
Pressure 30.19 in
Visibility 10.0 miles
Clouds Clear
Dew Point 50 °F
Humidity 63%
Rainfall 0.00 in
Snow Depth Not available.
6:38 AM 6:58 PM
Waning Crescent, 10% visible
METAR K4A9 250735Z AUTO 13004KT 10SM CLR 17/07 A3019 RMK AO2

Get Your Daily Forecast Email!

Thanks for signing up!

Be on the lookout for a verification email in your inbox.

You'll start receiving severe weather alerts in your inbox..

×

10-Day Weather Forecast

Almanac

Astronomy

Mar. 25, 2017 Rise Set
Actual Time
Civil Twilight
Nautical Twilight
Astronomical Twilight
Moon
Length of Visible Light
Length of Day
Tomorrow will be .
, % of the Moon is Illuminated

Today's Extremes

State Highs State Lows

Community

WunderPhotos

Upload Photos

1,962,540 photos uploaded!

WunderBlog® & News

Nearby

Air Quality

  Air Quality AQ Index Pollutant
Not available.

Snow Depth

Station Depth Elevation

Earthquake Activity

City Distance Mag. Time & Date
Minimum magnitude displayed is 2.5.

Earthquake Activity

City Distance Mag. Time & Date
Minimum magnitude displayed is 2.5.

Coastal Water Temperatures

Place Temperature

Stations

Nearby Weather Stations

Station Location Temp. Windchill Dew Point Humidity Wind Precip. Elev Updated Type
                   

Watches & Warnings

Winter Weather Statement
Issued: 9:25 AM CDT Mar. 24, 2017 – National Weather Service